Time;durP1;ratioP1;P1;durP2;ratioP2;P2;SDS_P1;SDS_P2;PMS_P1;PMS_P2;Temp;Humidity;BMP_temperature;BMP_pressure;BME280_temperature;BME280_humidity;BME280_pressure;Samples;Min_cycle;Max_cycle;Signal;HPM_P1;HPM_P2
2021/10/22 00:00:24;;;;;;;10.93;2.77;;;;;;;9.98;48.49;97411.15;1721112;83;21462;-85
2021/10/22 00:02:51;;;;;;;6.87;3.37;;;;;;;10.01;48.46;97405.97;1721109;82;21065;-82
2021/10/22 00:05:19;;;;;;;4.47;2.00;;;;;;;10.04;48.48;97405.94;1721025;83;21485;-82
2021/10/22 00:07:45;;;;;;;4.28;2.05;;;;;;;10.07;48.60;97425.09;1721108;82;21049;-85
2021/10/22 00:10:11;;;;;;;4.67;1.95;;;;;;;10.05;48.73;97424.59;1711192;82;20903;-82
2021/10/22 00:12:39;;;;;;;6.67;1.47;;;;;;;10.04;48.78;97424.88;1701660;82;21408;-82
2021/10/22 00:15:08;;;;;;;2.72;1.10;;;;;;;10.04;48.87;97426.23;1702124;84;21175;-81
2021/10/22 00:17:37;;;;;;;2.30;1.07;;;;;;;10.04;48.92;97424.33;1701627;83;21527;-82
2021/10/22 00:20:07;;;;;;;2.02;0.93;;;;;;;10.01;49.06;97435.75;1701834;84;20992;-82
2021/10/22 00:22:33;;;;;;;4.10;1.22;;;;;;;9.97;49.22;97442.02;1701810;82;20988;-86
2021/10/22 00:24:59;;;;;;;4.17;1.60;;;;;;;9.90;49.37;97444.52;1701854;84;20924;-82
2021/10/22 00:27:25;;;;;;;12.53;4.33;;;;;;;9.85;49.50;97441.89;1701933;83;21384;-86
2021/10/22 00:29:51;;;;;;;11.50;3.75;;;;;;;9.82;49.66;97438.39;1701717;84;21581;-85
2021/10/22 00:32:17;;;;;;;11.65;2.55;;;;;;;9.78;49.84;97440.08;1701744;83;21211;-82
2021/10/22 00:34:45;;;;;;;12.63;5.55;;;;;;;9.83;49.98;97423.79;1701718;83;21431;-86
2021/10/22 00:37:13;;;;;;;7.78;2.67;;;;;;;9.97;49.92;97429.84;1702529;83;21313;-85
2021/10/22 00:39:39;;;;;;;3.95;1.60;;;;;;;10.01;50.04;97430.34;1701774;84;21044;-82
2021/10/22 00:42:07;;;;;;;6.97;2.33;;;;;;;10.10;49.89;97423.73;1701767;83;21455;-85
2021/10/22 00:44:35;;;;;;;5.97;1.55;;;;;;;10.19;49.86;97430.11;1697431;84;20991;-85
2021/10/22 00:47:09;;;;;;;10.80;3.10;;;;;;;10.22;49.87;97424.64;1701692;83;21047;-85
2021/10/22 00:49:39;;;;;;;;;;;;;;;;;;;;;
2021/10/22 00:51:57;;;;;;;6.65;2.10;;;;;;;10.30;49.79;97428.09;1700777;83;21473;-86
2021/10/22 00:54:25;;;;;;;6.33;3.55;;;;;;;10.33;49.82;97432.36;1701838;84;21079;-82
2021/10/22 00:56:56;;;;;;;2.35;1.45;;;;;;;10.31;49.90;97426.44;1697161;83;20956;-81
2021/10/22 00:59:23;;;;;;;7.58;3.05;;;;;;;10.31;50.12;97408.03;1695829;84;20940;-82
2021/10/22 01:01:51;;;;;;;8.83;1.42;;;;;;;10.31;50.12;97408.03;1701566;83;21070;-85
2021/10/22 01:04:17;;;;;;;8.23;1.60;;;;;;;10.39;50.03;97417.66;1701945;82;21419;-82
2021/10/22 01:06:49;;;;;;;6.08;3.27;;;;;;;10.40;50.16;97417.91;1701783;82;20960;-82
2021/10/22 01:09:15;;;;;;;7.90;2.00;;;;;;;10.37;50.24;97411.73;1701828;82;20983;-85
2021/10/22 01:11:43;;;;;;;9.30;2.10;;;;;;;10.38;50.20;97407.92;1719149;82;20990;-82
2021/10/22 01:14:18;;;;;;;7.92;2.05;;;;;;;10.38;50.20;97407.92;1721237;83;20890;-82
2021/10/22 01:16:43;;;;;;;3.85;1.95;;;;;;;10.35;50.57;97401.75;1719726;82;21050;-81
2021/10/22 01:19:16;;;;;;;5.67;1.90;;;;;;;10.33;50.71;97397.70;1721001;82;20989;-85
2021/10/22 01:21:54;;;;;;;;;;;;;;;;;;;;;
2021/10/22 01:24:19;;;;;;;5.08;1.45;;;;;;;10.36;51.23;97408.77;1717708;82;20994;-85
2021/10/22 01:26:42;;;;;;;3.58;1.52;;;;;;;10.37;50.89;97409.58;1699421;83;21033;-82
2021/10/22 01:29:12;;;;;;;10.48;4.42;;;;;;;10.34;51.01;97409.63;1720995;82;20981;-85
2021/10/22 01:31:40;;;;;;;3.92;1.45;;;;;;;10.32;51.11;97404.22;1720892;83;21001;-82
2021/10/22 01:34:10;;;;;;;1.65;0.88;;;;;;;10.28;51.21;97405.37;1720876;82;21002;-85
2021/10/22 01:36:43;;;;;;;2.80;1.62;;;;;;;10.28;51.43;97412.14;1670718;83;21458;-82
2021/10/22 01:39:11;;;;;;;7.37;1.95;;;;;;;10.26;51.53;97411.63;1701264;83;21060;-85
2021/10/22 01:41:40;;;;;;;8.08;3.35;;;;;;;10.27;51.54;97403.77;1720919;82;21078;-82
2021/10/22 01:44:07;;;;;;;7.95;3.05;;;;;;;10.25;51.62;97411.90;1720514;82;21049;-85
2021/10/22 01:46:35;;;;;;;6.03;1.45;;;;;;;10.25;51.68;97407.84;1724102;83;21311;-85
2021/10/22 01:49:13;;;;;;;;;;;;;;;;;;;;;
2021/10/22 01:51:31;;;;;;;5.08;2.37;;;;;;;10.30;51.63;97418.61;1719369;82;20922;-81
2021/10/22 01:54:07;;;;;;;;;;;;;;;;;;;;;
2021/10/22 01:56:25;;;;;;;6.17;2.25;;;;;;;10.34;51.47;97420.98;1719024;82;21335;-85
2021/10/22 01:59:00;;;;;;;5.37;1.98;;;;;;;10.36;51.68;97431.80;1721036;82;20934;-82
2021/10/22 02:01:30;;;;;;;4.55;2.37;;;;;;;10.31;51.73;97422.38;1712135;83;21041;-85
2021/10/22 02:04:02;;;;;;;;;;;;;;;;;;;;;
2021/10/22 02:06:30;;;;;;;;;;;;;;;;;;;;;
2021/10/22 02:08:50;;;;;;;5.37;2.52;;;;;;;10.31;51.77;97426.98;1717909;82;21000;-82
2021/10/22 02:11:20;;;;;;;5.53;1.40;;;;;;;10.27;51.84;97430.03;1720181;82;21068;-82
2021/10/22 02:13:48;;;;;;;4.10;2.00;;;;;;;10.25;52.08;97426.24;1719632;83;21422;-82
2021/10/22 02:16:22;;;;;;;11.30;1.25;;;;;;;10.28;52.11;97432.45;1720926;82;20946;-82
2021/10/22 02:18:49;;;;;;;2.72;1.20;;;;;;;10.26;52.23;97428.42;1717856;82;21144;-81
2021/10/22 02:21:17;;;;;;;1.50;0.90;;;;;;;10.27;52.28;97424.07;1700733;83;20946;-82
2021/10/22 02:23:45;;;;;;;1.32;0.72;;;;;;;10.26;52.35;97423.81;1720699;83;20989;-82
2021/10/22 02:26:12;;;;;;;4.95;0.88;;;;;;;10.24;52.57;97425.18;1720986;82;20886;-86
2021/10/22 02:28:41;;;;;;;5.72;1.90;;;;;;;10.26;52.57;97426.52;1721294;82;20992;-85
2021/10/22 02:31:09;;;;;;;4.92;1.25;;;;;;;10.26;52.55;97423.81;1720937;82;21148;-82
2021/10/22 02:33:36;;;;;;;5.55;1.70;;;;;;;10.23;52.77;97424.37;1717987;83;20969;-82
2021/10/22 02:36:04;;;;;;;4.35;1.20;;;;;;;10.24;52.71;97426.53;1721021;82;20957;-85
2021/10/22 02:38:39;;;;;;;5.50;2.52;;;;;;;10.21;53.25;97429.26;1720705;83;20974;-82
2021/10/22 02:41:00;;;;;;;5.83;2.27;;;;;;;10.21;53.25;97429.26;1719963;82;21025;-86
2021/10/22 02:43:28;;;;;;;3.95;1.55;;;;;;;10.22;53.09;97433.60;1720959;82;21179;-86
2021/10/22 02:45:56;;;;;;;4.92;1.67;;;;;;;10.18;53.23;97429.85;1720631;82;21340;-82
2021/10/22 02:48:30;;;;;;;12.80;2.97;;;;;;;10.15;53.51;97430.41;1720480;82;20997;-82
2021/10/22 02:50:54;;;;;;;2.70;1.40;;;;;;;10.14;53.49;97434.22;1719944;82;20997;-82
2021/10/22 02:53:22;;;;;;;3.60;1.20;;;;;;;10.13;53.58;97433.97;1720347;83;21422;-85
2021/10/22 02:55:52;;;;;;;3.05;1.40;;;;;;;10.11;53.71;97437.52;1721056;83;21021;-85
2021/10/22 02:58:20;;;;;;;3.15;1.10;;;;;;;10.08;53.83;97440.27;1696613;83;21056;-85
2021/10/22 03:00:46;;;;;;;8.80;2.05;;;;;;;10.07;54.12;97443.23;1721076;83;21095;-86
2021/10/22 03:03:14;;;;;;;3.42;1.20;;;;;;;10.07;54.06;97448.66;1720496;82;21005;-86
2021/10/22 03:05:42;;;;;;;3.92;2.15;;;;;;;10.05;54.26;97446.79;1721005;83;21006;-85
2021/10/22 03:08:08;;;;;;;2.60;1.45;;;;;;;10.03;54.23;97451.70;1720917;82;21118;-81
2021/10/22 03:10:38;;;;;;;4.00;1.13;;;;;;;9.99;54.53;97456.06;1711773;83;21110;-85
2021/10/22 03:13:06;;;;;;;3.50;1.10;;;;;;;9.99;54.65;97463.63;1699759;83;21050;-82
2021/10/22 03:15:35;;;;;;;7.42;1.35;;;;;;;10.01;54.75;97464.72;1701853;82;20944;-85
2021/10/22 03:18:03;;;;;;;2.55;1.00;;;;;;;10.01;54.83;97465.52;1701579;83;20944;-82
2021/10/22 03:20:35;;;;;;;3.55;1.25;;;;;;;10.02;55.05;97457.66;1701919;84;20968;-86
2021/10/22 03:23:00;;;;;;;2.08;1.00;;;;;;;10.01;55.19;97453.89;1701301;83;20975;-82
2021/10/22 03:25:30;;;;;;;4.92;1.10;;;;;;;10.01;55.20;97457.95;1702440;83;21017;-82
2021/10/22 03:28:04;;;;;;;4.35;1.20;;;;;;;10.00;55.20;97457.15;1701050;83;20995;-85
2021/10/22 03:30:28;;;;;;;2.20;1.00;;;;;;;10.00;55.34;97468.49;1702245;83;21094;-85
2021/10/22 03:32:58;;;;;;;3.35;0.95;;;;;;;10.02;55.55;97476.61;1674164;83;21088;-85
2021/10/22 03:35:37;;;;;;;;;;;;;;;;;;;;;
2021/10/22 03:37:57;;;;;;;6.05;2.10;;;;;;;10.06;55.45;97495.77;1655418;82;21014;-86
2021/10/22 03:40:25;;;;;;;4.67;1.55;;;;;;;10.07;55.57;97501.44;1701977;83;21369;-82
2021/10/22 03:42:56;;;;;;;5.95;1.00;;;;;;;10.07;55.89;97505.50;1702203;83;21043;-85
2021/10/22 03:45:30;;;;;;;1.95;1.10;;;;;;;10.09;55.76;97498.72;1700626;83;21284;-82
2021/10/22 03:47:53;;;;;;;6.20;1.65;;;;;;;10.10;55.73;97490.05;1700674;84;21495;-82
2021/10/22 03:50:19;;;;;;;2.80;1.60;;;;;;;10.10;55.88;97484.09;1701918;82;21066;-84
2021/10/22 03:52:48;;;;;;;3.80;0.90;;;;;;;10.05;55.98;97499.02;1701880;84;21636;-82
2021/10/22 03:55:17;;;;;;;5.00;1.37;;;;;;;10.04;56.17;97503.38;1701940;83;20925;-82
2021/10/22 03:57:42;;;;;;;2.53;1.30;;;;;;;10.05;56.22;97520.69;1702223;83;21128;-82
2021/10/22 04:00:12;;;;;;;4.62;1.12;;;;;;;10.07;56.32;97518.48;1701220;83;20975;-86
2021/10/22 04:02:40;;;;;;;5.30;1.32;;;;;;;10.06;56.38;97532.31;1694357;84;21063;-85
2021/10/22 04:05:07;;;;;;;5.20;1.40;;;;;;;10.05;56.69;97526.64;1701608;82;21054;-85
2021/10/22 04:07:35;;;;;;;5.58;1.17;;;;;;;10.05;56.78;97534.22;1674288;83;20947;-86
2021/10/22 04:10:07;;;;;;;5.53;1.32;;;;;;;10.04;56.93;97524.48;1701824;83;21733;-85
2021/10/22 04:12:35;;;;;;;1.70;1.00;;;;;;;9.96;57.10;97519.70;1701966;83;20972;-82
2021/10/22 04:15:01;;;;;;;3.80;1.37;;;;;;;9.96;57.10;97519.70;1701709;83;21090;-82
2021/10/22 04:17:29;;;;;;;6.62;3.05;;;;;;;9.96;57.23;97522.95;1701977;82;21456;-85
2021/10/22 04:19:55;;;;;;;3.70;1.50;;;;;;;9.83;57.67;97532.58;1701155;83;20959;-85
2021/10/22 04:22:21;;;;;;;3.65;1.02;;;;;;;9.83;57.67;97532.58;1701856;83;21472;-85
2021/10/22 04:24:47;;;;;;;3.62;1.98;;;;;;;9.87;57.71;97537.12;1701715;83;20975;-81
2021/10/22 04:27:13;;;;;;;2.30;1.15;;;;;;;9.88;57.72;97546.04;1701917;84;20977;-85
2021/10/22 04:29:43;;;;;;;4.22;1.55;;;;;;;9.88;58.04;97549.55;1701724;83;20988;-86
2021/10/22 04:32:09;;;;;;;4.95;2.22;;;;;;;9.90;57.91;97551.97;1701671;83;20996;-82
2021/10/22 04:34:38;;;;;;;3.00;1.42;;;;;;;9.87;57.93;97556.61;1701705;83;21147;-85
2021/10/22 04:37:24;;;;;;;5.12;2.02;;;;;;;9.84;57.84;97560.70;1693038;84;21058;-81
2021/10/22 04:42:25;;;;;;;2.65;1.47;;;;;;;9.76;57.73;97565.38;1701954;84;21408;-82
2021/10/22 04:44:53;;;;;;;4.28;1.85;;;;;;;9.69;57.88;97566.25;1701541;83;20991;-82
2021/10/22 04:47:19;;;;;;;7.80;3.08;;;;;;;9.61;58.23;97565.52;1701827;82;21112;-86
2021/10/22 04:49:45;;;;;;;7.55;2.75;;;;;;;9.55;58.34;97564.73;1701658;83;20884;-81
2021/10/22 04:52:11;;;;;;;5.28;1.98;;;;;;;9.50;58.57;97574.27;1702008;84;21550;-81
2021/10/22 04:54:39;;;;;;;2.33;1.52;;;;;;;9.46;58.70;97577.80;1701650;82;21408;-84
2021/10/22 04:57:12;;;;;;;6.75;1.82;;;;;;;9.42;59.00;97581.63;1701863;84;21066;-82
2021/10/22 04:59:40;;;;;;;3.50;2.00;;;;;;;9.40;59.09;97582.47;1701372;83;21166;-85
2021/10/22 05:02:01;;;;;;;6.33;2.00;;;;;;;9.37;58.97;97584.36;1701092;83;20936;-82
2021/10/22 05:04:37;;;;;;;;;;;;;;;;;;;;;
2021/10/22 05:07:02;;;;;;;3.45;1.40;;;;;;;9.33;59.47;97590.09;1700937;83;20972;-82
2021/10/22 05:09:27;;;;;;;10.82;2.58;;;;;;;9.31;59.56;97596.30;1697048;83;21313;-86
2021/10/22 05:12:06;;;;;;;;;;;;;;;;;;;;;
2021/10/22 05:14:26;;;;;;;3.25;1.60;;;;;;;9.25;59.52;97600.14;1721337;82;21469;-85
2021/10/22 05:16:52;;;;;;;5.90;1.80;;;;;;;9.22;59.97;97597.98;1721511;83;20921;-85
2021/10/22 05:19:18;;;;;;;3.60;1.50;;;;;;;9.24;59.87;97600.70;1721742;82;21372;-85
2021/10/22 05:21:44;;;;;;;6.45;2.47;;;;;;;9.22;59.97;97601.49;1721839;83;20909;-85
2021/10/22 05:24:10;;;;;;;6.15;2.70;;;;;;;9.22;59.87;97598.80;1721634;82;21910;-85
2021/10/22 05:26:36;;;;;;;13.58;3.85;;;;;;;9.20;59.83;97600.17;1721354;83;21012;-85
2021/10/22 05:29:02;;;;;;;33.67;9.30;;;;;;;9.16;59.87;97601.28;1721731;82;21305;-85
2021/10/22 05:31:28;;;;;;;18.90;7.75;;;;;;;9.11;59.81;97605.36;1721609;83;20868;-81
2021/10/22 05:33:54;;;;;;;7.90;3.80;;;;;;;9.04;59.91;97604.86;1722096;82;20916;-81
2021/10/22 05:36:23;;;;;;;9.00;3.98;;;;;;;8.99;60.47;97606.26;1721621;83;21115;-82
2021/10/22 05:38:51;;;;;;;12.07;4.15;;;;;;;8.93;60.26;97607.36;1721431;82;21023;-82
2021/10/22 05:41:19;;;;;;;8.45;3.45;;;;;;;8.89;60.29;97617.13;1718116;83;20960;-81
2021/10/22 05:43:49;;;;;;;5.25;2.15;;;;;;;8.85;60.94;97620.91;1721778;83;21024;-85
2021/10/22 05:46:18;;;;;;;4.92;2.98;;;;;;;8.84;61.54;97627.41;1713736;83;20991;-83
2021/10/22 05:48:49;;;;;;;19.48;7.12;;;;;;;8.91;61.08;97633.86;1721887;83;21134;-85
2021/10/22 05:51:16;;;;;;;22.27;8.48;;;;;;;8.94;60.86;97644.11;1703645;83;21464;-85
2021/10/22 05:53:42;;;;;;;19.55;8.48;;;;;;;8.93;61.28;97646.00;1721808;83;21004;-82
2021/10/22 05:56:10;;;;;;;15.65;8.93;;;;;;;8.91;61.12;97656.83;1719077;83;21024;-82
2021/10/22 05:58:39;;;;;;;14.45;6.03;;;;;;;8.86;62.67;97664.41;1721745;83;20987;-82
2021/10/22 06:01:04;;;;;;;11.12;5.40;;;;;;;8.81;61.72;97660.94;1721684;82;21283;-86
2021/10/22 06:03:30;;;;;;;16.27;5.92;;;;;;;8.74;61.57;97669.33;1721622;83;20944;-85
2021/10/22 06:06:02;;;;;;;11.60;5.00;;;;;;;8.68;61.60;97667.72;1721240;82;21062;-86
2021/10/22 06:08:36;;;;;;;18.00;6.72;;;;;;;8.63;62.03;97674.48;1721568;83;21373;-82
2021/10/22 06:11:12;;;;;;;;;;;;;;;;;;;;;
2021/10/22 06:13:32;;;;;;;41.63;16.35;;;;;;;8.66;61.71;97688.27;1719158;83;21236;-82
2021/10/22 06:16:07;;;;;;;44.42;19.35;;;;;;;8.65;61.75;97693.94;1720662;83;21007;-82
2021/10/22 06:18:37;;;;;;;33.85;14.98;;;;;;;8.62;62.11;97693.13;1720356;83;20952;-81
2021/10/22 06:21:04;;;;;;;42.50;14.85;;;;;;;8.59;62.86;97692.33;1697783;83;20999;-84
2021/10/22 06:26:17;;;;;;;29.72;10.55;;;;;;;8.59;62.24;97698.55;1724111;82;21413;-85
2021/10/22 06:28:48;;;;;;;21.05;8.33;;;;;;;8.60;62.24;97716.36;1725071;82;21523;-85
2021/10/22 06:31:16;;;;;;;16.15;6.58;;;;;;;8.58;63.48;97715.83;1723866;82;21282;-82
2021/10/22 06:36:53;;;;;;;;;;;;;;;;;;;;;
2021/10/22 06:39:25;;;;;;;;;;;;;;;;;;;;;
2021/10/22 06:41:59;;;;;;;;;;;;;;;;;;;;;
2021/10/22 06:44:28;;;;;;;;;;;;;;;;;;;;;
2021/10/22 06:47:00;;;;;;;;;;;;;;;;;;;;;
2021/10/22 06:49:23;;;;;;;6.60;3.37;;;;;;;8.60;63.64;97738.52;1540465;93;21038;-82
2021/10/22 06:52:07;;;;;;;;;;;;;;;;;;;;;
2021/10/22 06:54:47;;;;;;;;;;;;;;;;;;;;;
2021/10/22 06:57:05;;;;;;;5.20;1.82;;;;;;;8.86;62.71;97746.81;1493221;96;21094;-82
2021/10/22 06:59:41;;;;;;;6.22;2.20;;;;;;;8.92;62.35;97749.78;1625318;82;20980;-82
2021/10/22 07:02:20;;;;;;;6.78;3.25;;;;;;;8.99;61.86;97752.19;1668720;84;20927;-82
2021/10/22 07:04:52;;;;;;;5.15;1.50;;;;;;;9.10;61.72;97752.41;1668147;84;21047;-85
2021/10/22 07:07:30;;;;;;;;;;;;;;;;;;;;;
2021/10/22 07:10:02;;;;;;;;;;;;;;;;;;;;;
2021/10/22 07:12:32;;;;;;;3.00;2.55;;;;;;;9.34;61.05;97766.11;1673832;83;21098;-86
2021/10/22 07:15:13;;;;;;;;;;;;;;;;;;;;;
2021/10/22 07:17:44;;;;;;;5.80;1.55;;;;;;;9.52;60.42;97760.06;1585607;87;21025;-82
2021/10/22 07:20:11;;;;;;;3.77;1.15;;;;;;;9.62;60.35;97767.30;1509336;93;21470;-85
2021/10/22 07:22:54;;;;;;;4.78;1.52;;;;;;;9.76;59.23;97762.91;1487576;94;21061;-82
2021/10/22 07:25:37;;;;;;;;;;;;;;;;;;;;;
2021/10/22 07:30:46;;;;;;;;;;;;;;;;;;;;;
2021/10/22 07:33:37;;;;;;;;;;;;;;;;;;;;;
2021/10/22 07:36:02;;;;;;;;;;;;;;;;;;;;;
2021/10/22 07:41:07;;;;;;;;;;;;;;;;;;;;;
2021/10/22 07:43:37;;;;;;;;;;;;;;;;;;;;;
2021/10/22 07:46:15;;;;;;;;;;;;;;;;;;;;;
2021/10/22 07:48:58;;;;;;;;;;;;;;;;;;;;;
2021/10/22 07:51:22;;;;;;;;;;;;;;;;;;;;;
2021/10/22 07:53:54;;;;;;;;;;;;;;;;;;;;;
2021/10/22 07:58:51;;;;;;;;;;;;;;;;;;;;;
2021/10/22 08:01:24;;;;;;;;;;;;;;;;;;;;;
2021/10/22 08:03:57;;;;;;;;;;;;;;;;;;;;;
2021/10/22 08:06:30;;;;;;;;;;;;;;;;;;;;;
2021/10/22 08:08:53;;;;;;;5.78;2.60;;;;;;;10.58;49.96;97803.72;1551194;92;21046;-85
2021/10/22 08:11:27;;;;;;;2.77;1.15;;;;;;;10.61;50.44;97809.95;1523380;94;21041;-84
2021/10/22 08:14:04;;;;;;;;;;;;;;;;;;;;;
2021/10/22 08:16:32;;;;;;;3.02;1.27;;;;;;;10.72;45.41;97816.07;1399567;101;20992;-82
2021/10/22 08:19:13;;;;;;;;;;;;;;;;;;;;;
2021/10/22 08:24:23;;;;;;;;;;;;;;;;;;;;;
2021/10/22 08:26:49;;;;;;;4.25;1.52;;;;;;;10.81;46.00;97806.22;1413692;99;21108;-82
2021/10/22 08:29:22;;;;;;;7.28;1.30;;;;;;;10.90;44.65;97819.41;1402418;100;21072;-84
2021/10/22 08:32:06;;;;;;;;;;;;;;;;;;;;;
2021/10/22 08:34:47;;;;;;;;;;;;;;;;;;;;;
2021/10/22 08:39:37;;;;;;;;;;;;;;;;;;;;;
2021/10/22 08:42:12;;;;;;;;;;;;;;;;;;;;;
2021/10/22 08:44:49;;;;;;;;;;;;;;;;;;;;;
2021/10/22 08:47:23;;;;;;;;;;;;;;;;;;;;;
2021/10/22 08:50:04;;;;;;;;;;;;;;;;;;;;;
2021/10/22 08:52:24;;;;;;;5.10;1.45;;;;;;;11.69;44.68;97815.78;1667134;84;20924;-83
2021/10/22 12:30:13;;;;;;;3.02;0.95;;;;;;;13.12;39.64;97693.30;1602304;88;21382;-88
2021/10/22 16:29:29;;;;;;;50.78;31.00;;;;;;;9.98;47.69;97761.11;1676169;84;20980;-81
2021/10/22 16:31:55;;;;;;;26.50;14.20;;;;;;;9.98;47.69;97761.11;1737626;82;21081;-81
2021/10/22 16:37:19;;;;;;;63.17;31.60;;;;;;;9.97;48.09;97753.28;1739203;82;20904;-86
2021/10/22 16:39:53;;;;;;;;;;;;;;;;;;;;;
2021/10/22 16:42:25;;;;;;;;;;;;;;;;;;;;;
2021/10/22 16:44:59;;;;;;;;;;;;;;;;;;;;;
2021/10/22 16:47:22;;;;;;;26.97;18.32;;;;;;;10.00;48.54;97758.95;1660430;86;20964;-86
2021/10/22 16:49:58;;;;;;;;;;;;;;;;;;;;;
2021/10/22 16:52:30;;;;;;;;;;;;;;;;;;;;;
2021/10/22 16:54:59;;;;;;;7.97;4.08;;;;;;;9.95;48.86;97754.11;1636941;86;21135;-81
2021/10/22 16:57:33;;;;;;;13.78;8.88;;;;;;;9.97;48.73;97756.80;1649055;86;21009;-81
2021/10/22 17:00:09;;;;;;;;;;;;;;;;;;;;;
2021/10/22 17:02:42;;;;;;;;;;;;;;;;;;;;;
2021/10/22 17:05:07;;;;;;;26.68;14.83;;;;;;;9.99;48.67;97772.20;1659136;86;21087;-82
2021/10/22 17:07:51;;;;;;;;;;;;;;;;;;;;;
2021/10/22 17:10:21;;;;;;;;;;;;;;;;;;;;;
2021/10/22 17:12:50;;;;;;;;;;;;;;;;;;;;;
2021/10/22 17:15:24;;;;;;;;;;;;;;;;;;;;;
2021/10/22 17:18:00;;;;;;;;;;;;;;;;;;;;;
2021/10/22 17:20:16;;;;;;;11.18;6.42;;;;;;;9.88;48.84;97783.65;1525919;93;21038;-87
2021/10/22 17:22:56;;;;;;;;;;;;;;;;;;;;;
2021/10/22 17:25:25;;;;;;;;;;;;;;;;;;;;;
2021/10/22 17:27:53;;;;;;;18.73;8.78;;;;;;;9.83;48.72;97809.95;1536343;92;21169;-81
2021/10/22 17:30:18;;;;;;;11.10;4.47;;;;;;;9.81;48.95;97805.34;1558061;91;21000;-86
2021/10/22 17:32:56;;;;;;;21.42;9.20;;;;;;;9.77;48.80;97811.87;1609954;87;21372;-81
2021/10/22 17:35:28;;;;;;;;;;;;;;;;;;;;;
2021/10/22 17:37:48;;;;;;;11.15;4.95;;;;;;;9.73;48.68;97801.32;1543323;91;21036;-86
2021/10/22 17:40:28;;;;;;;8.53;3.52;;;;;;;9.74;48.50;97795.37;1522050;93;21007;-86
2021/10/22 17:42:54;;;;;;;9.00;4.22;;;;;;;9.74;48.49;97792.14;1579781;87;21053;-81
2021/10/22 17:45:23;;;;;;;9.20;4.72;;;;;;;9.75;48.27;97791.59;1645217;87;21026;-87
2021/10/22 17:47:54;;;;;;;9.80;4.53;;;;;;;9.75;48.33;97797.02;1725516;82;21407;-82
2021/10/22 17:50:26;;;;;;;10.68;5.55;;;;;;;9.73;48.32;97797.81;1696402;83;20960;-86
2021/10/22 17:53:01;;;;;;;;;;;;;;;;;;;;;
2021/10/22 17:55:21;;;;;;;16.95;5.70;;;;;;;9.66;48.42;97804.09;1693944;84;21452;-81
2021/10/22 17:57:53;;;;;;;12.70;5.33;;;;;;;9.64;48.50;97800.84;1687635;83;20921;-81
2021/10/22 18:00:51;;;;;;;;;;;;;;;;;;;;;
2021/10/22 18:03:11;;;;;;;;;;;;;;;;;;;;;
2021/10/22 18:05:43;;;;;;;12.30;5.70;;;;;;;9.50;48.84;97799.30;1637494;83;21053;-86
2021/10/22 18:08:32;;;;;;;;;;;;;;;;;;;;;
2021/10/22 18:10:54;;;;;;;;;;;;;;;;;;;;;
2021/10/22 18:13:29;;;;;;;;;;;;;;;;;;;;;
2021/10/22 18:26:15;;;;;;;;;;;;;;;;;;;;;
2021/10/22 18:38:47;;;;;;;;;;;;;;;;;;;;;
2021/10/22 18:43:57;;;;;;;;;;;;;;;;;;;;;
2021/10/22 18:46:35;;;;;;;;;;;;;;;;;;;;;
2021/10/22 18:51:50;;;;;;;;;;;;;;;;;;;;;
2021/10/22 19:22:23;;;;;;;;;;;;;;;;;;;;;
2021/10/22 19:30:01;;;;;;;;;;;;;;;;;;;;;
2021/10/22 19:35:18;;;;;;;;;;;;;;;;;;;;;
2021/10/22 19:37:47;;;;;;;;;;;;;;;;;;;;;
2021/10/22 22:09:48;;;;;;;;;;;;;;;;;;;;;
2021/10/22 22:14:43;;;;;;;;;;;;;;;;;;;;;
